createdAt,value
2022-10-10T00:10:05.665Z,101192.50
2022-10-10T00:20:07.749Z,101186.41
2022-10-10T00:30:10.824Z,101195.56
2022-10-10T00:40:16.585Z,101173.00
2022-10-10T00:50:21.955Z,101170.94
2022-10-10T01:00:23.574Z,101165.59
2022-10-10T01:10:26.802Z,101159.59
2022-10-10T01:20:50.291Z,101158.44
2022-10-10T01:30:53.900Z,101148.00
2022-10-10T01:41:17.270Z,101148.88
2022-10-10T01:51:34.067Z,101138.09
2022-10-10T02:02:00.771Z,101144.91
2022-10-10T02:12:04.112Z,101144.31
2022-10-10T02:22:10.548Z,101144.06
2022-10-10T02:32:24.457Z,101145.78
2022-10-10T02:42:27.598Z,101146.47
2022-10-10T02:52:30.377Z,101151.47
2022-10-10T03:02:32.062Z,101145.91
2022-10-10T03:12:35.941Z,101145.81
2022-10-10T03:22:37.943Z,101139.63
2022-10-10T03:32:40.612Z,101125.84
2022-10-10T03:42:42.277Z,101134.19
2022-10-10T03:52:43.975Z,101138.53
2022-10-10T04:02:45.676Z,101120.25
2022-10-10T04:12:51.797Z,101121.63
2022-10-10T04:22:54.768Z,101126.81
2022-10-10T04:32:58.351Z,101126.50
2022-10-10T04:43:00.356Z,101124.84
2022-10-10T04:53:02.053Z,101129.88
2022-10-10T05:03:03.874Z,101123.19
2022-10-10T05:13:11.680Z,101134.94
2022-10-10T05:23:21.272Z,101139.47
2022-10-10T05:33:23.266Z,101137.97
2022-10-10T05:43:26.509Z,101140.28
2022-10-10T05:53:30.800Z,101152.72
2022-10-10T06:03:34.792Z,101149.16
2022-10-10T06:13:39.968Z,101154.97
2022-10-10T06:23:41.982Z,101156.53
2022-10-10T06:33:46.086Z,101146.69
2022-10-10T06:43:49.608Z,101151.63
2022-10-10T06:53:51.342Z,101162.59
2022-10-10T07:03:56.015Z,101138.91
2022-10-10T07:13:57.731Z,101147.06
2022-10-10T07:24:02.597Z,101146.47
2022-10-10T07:34:06.202Z,101144.03
2022-10-10T07:44:07.859Z,101137.22
2022-10-10T07:54:10.364Z,101132.84
2022-10-10T08:04:13.023Z,101144.63
2022-10-10T08:14:15.707Z,101133.44
2022-10-10T08:24:17.680Z,101124.25
2022-10-10T08:34:21.461Z,101115.13
2022-10-10T08:44:50.500Z,101115.56
2022-10-10T08:54:58.306Z,101113.97
2022-10-10T09:05:02.695Z,101089.38
2022-10-10T09:15:15.575Z,101087.31
2022-10-10T09:25:30.863Z,101079.69
2022-10-10T09:35:37.851Z,101070.38
2022-10-10T09:45:46.591Z,101066.31
2022-10-10T09:55:50.052Z,101065.25
2022-10-10T10:06:01.607Z,101062.53
2022-10-10T10:16:11.387Z,101050.00
2022-10-10T10:26:21.922Z,101038.75
2022-10-10T10:36:46.876Z,101034.03
2022-10-10T10:47:07.845Z,101023.75
2022-10-10T10:57:40.635Z,101010.00
2022-10-10T11:07:59.607Z,101001.00
2022-10-10T11:18:14.103Z,100989.28
2022-10-10T11:28:35.792Z,100980.63
2022-10-10T11:38:46.267Z,100972.63
2022-10-10T11:48:59.073Z,100945.84
2022-10-10T11:59:15.881Z,100944.16
2022-10-10T12:09:33.687Z,100940.19
2022-10-10T12:19:36.064Z,100929.25
2022-10-10T12:29:51.300Z,100915.69
2022-10-10T12:40:18.830Z,100913.84
2022-10-10T12:50:37.497Z,100909.72
2022-10-10T13:00:47.671Z,100912.91
2022-10-10T13:11:15.799Z,100897.06
2022-10-10T13:21:35.783Z,100885.28
2022-10-10T13:31:43.608Z,100886.03
2022-10-10T13:41:48.969Z,100876.84
2022-10-10T13:52:03.269Z,100875.75
2022-10-10T14:02:14.411Z,100859.31
2022-10-10T14:12:24.442Z,100856.66
2022-10-10T14:22:27.696Z,100852.38
2022-10-10T14:32:30.677Z,100832.03
2022-10-10T14:42:35.907Z,100838.09
2022-10-10T14:52:37.505Z,100834.72
2022-10-10T15:02:45.454Z,100821.38
2022-10-10T15:12:47.810Z,100830.69
2022-10-10T15:22:49.538Z,100830.59
2022-10-10T15:32:51.614Z,100815.31
2022-10-10T15:42:55.215Z,100825.63
2022-10-10T15:52:57.357Z,100810.34
2022-10-10T16:02:58.913Z,100823.78
2022-10-10T16:13:00.457Z,100799.28
2022-10-10T16:23:02.201Z,100806.69
2022-10-10T16:33:03.943Z,100824.25
2022-10-10T16:43:05.794Z,100815.09
2022-10-10T16:53:09.568Z,100816.88
2022-10-10T17:03:11.245Z,100820.59
2022-10-10T17:13:12.900Z,100831.91
2022-10-10T17:23:16.412Z,100826.31
2022-10-10T17:33:24.036Z,100815.22
2022-10-10T17:43:25.952Z,100817.75
2022-10-10T17:53:29.669Z,100812.78
2022-10-10T18:03:32.085Z,100805.16
2022-10-10T18:13:34.855Z,100816.44
2022-10-10T18:23:37.171Z,100823.53
2022-10-10T18:33:39.595Z,100799.47
2022-10-10T18:43:42.632Z,100799.59
2022-10-10T18:53:45.089Z,100819.47
2022-10-10T19:03:46.746Z,100817.75
2022-10-10T19:13:49.686Z,100819.50
2022-10-10T19:23:51.362Z,100816.94
2022-10-10T19:33:53.363Z,100810.88
2022-10-10T19:43:58.174Z,100806.56
2022-10-10T19:53:59.902Z,100816.03
2022-10-10T20:04:04.125Z,100812.63
2022-10-10T20:14:07.448Z,100822.94
2022-10-10T20:24:12.287Z,100823.00
2022-10-10T20:34:15.037Z,100811.81
2022-10-10T20:44:17.012Z,100807.44
2022-10-10T20:54:25.281Z,100812.66
2022-10-10T21:04:36.815Z,100811.78
2022-10-10T21:14:39.475Z,100821.28
2022-10-10T21:24:48.105Z,100817.00
2022-10-10T21:34:54.342Z,100820.44
2022-10-10T21:45:04.113Z,100811.84
2022-10-10T21:55:06.105Z,100813.56
2022-10-10T22:05:11.308Z,100816.16
2022-10-10T22:15:13.905Z,100804.94
2022-10-10T22:25:19.252Z,100804.06
2022-10-10T22:35:20.864Z,100797.19
2022-10-10T22:45:23.576Z,100794.59
2022-10-10T22:55:25.195Z,100794.59
2022-10-10T23:05:28.845Z,100807.50
2022-10-10T23:15:30.701Z,100801.50
2022-10-10T23:25:32.318Z,100785.09
2022-10-10T23:35:34.232Z,100799.78
2022-10-10T23:45:35.787Z,100795.47
2022-10-10T23:55:39.710Z,100795.44
